Time;durP1;ratioP1;P1;durP2;ratioP2;P2;SDS_P1;SDS_P2;PMS_P1;PMS_P2;Temp;Humidity;BMP_temperature;BMP_pressure;BME280_temperature;BME280_humidity;BME280_pressure;Samples;Min_cycle;Max_cycle;Signal;HPM_P1;HPM_P2
2023/05/30 00:02:06;;;;;;;;;4.00;3.00;;;;;-147.17;100.00;43974.97;5082474;27;52074;-59
2023/05/30 00:04:31;;;;;;;;;7.00;5.00;;;;;-147.17;100.00;44216.72;5088840;27;51799;-58
2023/05/30 00:06:57;;;;;;;;;5.00;4.33;;;;;-147.17;100.00;44291.41;5082044;27;51290;-59
2023/05/30 00:09:23;;;;;;;;;2.67;2.67;;;;;-147.17;100.00;44501.75;5088364;27;51150;-58
2023/05/30 00:11:49;;;;;;;;;4.67;4.33;;;;;-147.17;100.00;44584.28;5088295;27;52864;-58
2023/05/30 00:14:20;;;;;;;;;6.00;6.00;;;;;-147.17;100.00;44755.31;5084139;27;51088;-58
2023/05/30 00:16:48;;;;;;;;;4.00;4.00;;;;;-147.17;100.00;45003.00;5075222;27;51240;-58
2023/05/30 00:19:14;;;;;;;;;5.33;4.67;;;;;-147.17;100.00;44947.97;5084119;27;51399;-58
2023/05/30 00:21:39;;;;;;;;;5.67;5.67;;;;;-147.17;100.00;44987.28;5082662;27;52054;-58
2023/05/30 00:24:05;;;;;;;;;6.00;5.33;;;;;-147.17;100.00;44973.53;5088987;27;51022;-59
2023/05/30 00:26:31;;;;;;;;;5.33;5.33;;;;;-147.17;100.00;45231.06;5079411;27;50995;-58
2023/05/30 00:28:56;;;;;;;;;5.33;4.67;;;;;-147.17;100.00;45244.81;5079237;27;51272;-58
2023/05/30 00:31:23;;;;;;;;;4.00;4.00;;;;;-147.17;100.00;45148.50;5085111;27;51446;-58
2023/05/30 00:33:48;;;;;;;;;4.00;3.67;;;;;-147.17;100.00;45185.84;5087073;27;51080;-58
2023/05/30 00:36:14;;;;;;;;;4.67;4.67;;;;;-147.17;100.00;45417.84;5087903;27;51182;-58
2023/05/30 00:38:40;;;;;;;;;6.33;5.00;;;;;-147.17;100.00;45146.53;5090656;27;51310;-58
2023/05/30 00:41:06;;;;;;;;;5.67;5.33;;;;;-147.17;100.00;45158.31;5085446;27;51207;-58
2023/05/30 00:43:31;;;;;;;;;7.00;5.00;;;;;-147.17;100.00;45174.03;5076410;27;51858;-58
2023/05/30 00:45:57;;;;;;;;;6.33;6.00;;;;;-147.17;100.00;45236.97;5088645;27;51470;-58
2023/05/30 00:48:23;;;;;;;;;4.67;4.67;;;;;-147.17;100.00;45142.59;5088170;27;51432;-58
2023/05/30 00:50:49;;;;;;;;;8.00;7.00;;;;;-147.17;100.00;44906.69;5082192;27;52256;-58
2023/05/30 00:53:15;;;;;;;;;6.33;6.00;;;;;-147.17;100.00;44845.75;5080486;27;50975;-58
2023/05/30 00:55:41;;;;;;;;;6.67;6.67;;;;;-147.17;100.00;44822.16;5092337;27;51526;-58
2023/05/30 00:58:06;;;;;;;;;7.00;7.00;;;;;-147.17;100.00;44668.81;5094991;27;51013;-58
2023/05/30 01:00:37;;;;;;;;;5.33;5.33;;;;;-147.17;100.00;44710.09;5088910;27;51875;-58
2023/05/30 01:03:03;;;;;;;;;4.33;3.67;;;;;-147.17;100.00;44427.03;5094311;27;51021;-58
2023/05/30 01:05:28;;;;;;;;;6.33;6.00;;;;;-147.17;100.00;44151.88;5083429;27;51217;-58
2023/05/30 01:07:54;;;;;;;;;5.67;5.33;;;;;-147.17;100.00;44358.25;5076078;27;51240;-58
2023/05/30 01:10:20;;;;;;;;;5.33;5.00;;;;;-147.17;100.00;44289.47;5087944;27;51175;-58
2023/05/30 01:13:28;;;;;;;;;7.67;7.00;;;;;-147.17;100.00;44045.75;5089675;27;54272;-58
2023/05/30 01:16:11;;;;;;;;;6.33;6.00;;;;;-147.17;100.00;43821.69;5076363;27;51093;-58
2023/05/30 01:19:01;;;;;;;;;7.33;6.00;;;;;-147.17;100.00;44057.53;5090461;27;51256;-58
2023/05/30 01:21:31;;;;;;;;;7.33;7.33;;;;;-147.17;100.00;43668.41;5086527;27;52775;-58
2023/05/30 01:24:00;;;;;;;;;5.67;5.67;;;;;-147.17;100.00;43676.25;5095097;27;50999;-58
2023/05/30 01:26:39;;;;;;;;;7.33;6.67;;;;;-147.17;100.00;43534.75;5088412;27;51104;-58
2023/05/30 01:29:06;;;;;;;;;5.00;5.00;;;;;-147.17;100.00;43334.31;5084111;27;51165;-58
2023/05/30 01:31:33;;;;;;;;;7.00;7.00;;;;;-147.17;100.00;43409.00;5085597;27;51660;-58
2023/05/30 01:33:58;;;;;;;;;8.00;5.67;;;;;-147.17;100.00;42750.75;5093264;27;51132;-58
2023/05/30 01:36:26;;;;;;;;;11.00;7.67;;;;;-147.17;100.00;42595.53;5094553;27;51113;-58
2023/05/30 01:38:51;;;;;;;;;6.33;6.33;;;;;-147.17;100.00;42463.91;5093622;27;51201;-57
2023/05/30 01:41:34;;;;;;;;;6.67;6.00;;;;;-147.17;100.00;42497.28;5082797;27;62623;-58
2023/05/30 01:44:19;;;;;;;;;3.00;2.67;;;;;-147.17;100.00;42404.97;5094073;27;51382;-58
2023/05/30 01:46:51;;;;;;;;;6.00;6.00;;;;;-147.17;100.00;41957.06;5093132;27;51226;-58
2023/05/30 01:49:37;;;;;;;;;5.33;4.67;;;;;-147.17;100.00;41707.59;5084491;27;51223;-58
2023/05/30 01:52:17;;;;;;;;;5.00;5.00;;;;;-147.17;100.00;41477.78;5089550;27;51237;-58
2023/05/30 01:54:47;;;;;;;;;7.00;7.00;;;;;-147.17;100.00;41177.28;5094206;27;51175;-57
2023/05/30 01:57:15;;;;;;;;;8.00;7.00;;;;;-147.17;100.00;41185.13;5093853;27;51476;-57
2023/05/30 01:59:42;;;;;;;;;6.00;6.00;;;;;-147.17;100.00;40925.91;5085655;27;51342;-58
2023/05/30 02:02:09;;;;;;;;;5.33;5.00;;;;;-147.17;100.00;41071.22;5083943;27;51358;-58
2023/05/30 02:04:35;;;;;;;;;8.00;5.00;;;;;-147.17;100.00;40332.84;5089076;27;51125;-58
2023/05/30 02:07:00;;;;;;;;;8.33;7.00;;;;;-147.17;100.00;40236.66;5093410;27;51075;-57
2023/05/30 02:09:27;;;;;;;;;5.00;5.00;;;;;-147.17;100.00;39794.88;5086470;27;51520;-58
2023/05/30 02:11:52;;;;;;;;;7.00;5.33;;;;;-147.17;100.00;39637.81;5093508;27;61678;-58
2023/05/30 02:14:17;;;;;;;;;5.00;5.00;;;;;-147.17;100.00;39364.94;5083496;27;51326;-57
2023/05/30 02:16:44;;;;;;;;;8.33;6.67;;;;;-147.17;100.00;39757.56;5087443;27;51528;-58
2023/05/30 02:19:11;;;;;;;;;6.00;5.67;;;;;-147.17;100.00;39088.16;5091435;27;51366;-57
2023/05/30 02:21:37;;;;;;;;;7.67;7.67;;;;;-147.17;100.00;39190.22;5086173;27;52659;-56
2023/05/30 02:24:02;;;;;;;;;5.67;5.67;;;;;-147.17;100.00;38575.88;5081756;27;51108;-56
2023/05/30 02:26:27;;;;;;;;;6.67;6.00;;;;;-147.17;100.00;38956.63;5086361;27;51297;-57
2023/05/30 02:28:53;;;;;;;;;6.00;6.00;;;;;-147.17;100.00;38738.78;5082800;27;51153;-58
2023/05/30 02:31:18;;;;;;;;;6.00;5.00;;;;;-147.17;100.00;38770.16;5092263;27;62332;-57
2023/05/30 02:33:43;;;;;;;;;7.00;5.75;;;;;-147.17;100.00;37781.06;5094217;27;51031;-57
2023/05/30 02:36:09;;;;;;;;;5.00;5.00;;;;;-147.17;100.00;36327.28;5084212;27;51075;-57
2023/05/30 02:38:34;;;;;;;;;7.00;7.00;;;;;-147.17;100.00;36945.22;5084714;27;51430;-57
2023/05/30 02:41:00;;;;;;;;;7.33;6.67;;;;;-147.17;100.00;36992.28;5084205;27;51046;-57
2023/05/30 02:43:25;;;;;;;;;6.33;6.33;;;;;-147.17;100.00;36331.19;5092834;27;51103;-58
2023/05/30 02:45:51;;;;;;;;;5.67;5.00;;;;;-147.17;100.00;36270.38;5082314;27;51213;-57
2023/05/30 02:48:16;;;;;;;;;5.00;5.00;;;;;-147.17;100.00;34611.28;5083949;27;50983;-58
2023/05/30 02:50:41;;;;;;;;;5.00;5.00;;;;;-147.17;100.00;34848.53;5091438;27;51140;-57
2023/05/30 02:53:07;;;;;;;;;6.33;6.00;;;;;-147.17;100.00;34370.13;5094071;27;51109;-57
2023/05/30 02:55:32;;;;;;;;;4.67;4.67;;;;;-147.17;100.00;34634.81;5092408;27;51199;-57
2023/05/30 02:57:57;;;;;;;;;6.00;6.00;;;;;-147.17;100.00;33293.91;5084352;27;51118;-57
2023/05/30 03:00:23;;;;;;;;;6.67;6.00;;;;;-147.17;100.00;33180.22;5090876;27;51250;-57
2023/05/30 03:02:49;;;;;;;;;8.33;7.00;;;;;-147.17;100.00;32666.75;5084319;27;51175;-57
2023/05/30 03:05:15;;;;;;;;;6.00;6.00;;;;;-147.17;100.00;32901.91;5080162;27;51182;-57
2023/05/30 03:07:40;;;;;;;;;7.00;7.00;;;;;-147.17;100.00;32901.91;5091973;27;51356;-56
2023/05/30 03:10:06;;;;;;;;;6.67;5.00;;;;;-147.17;100.00;32909.75;5088592;27;51986;-57
2023/05/30 03:12:31;;;;;;;;;5.33;4.67;;;;;-147.17;100.00;33109.66;5088154;27;51326;-57
2023/05/30 03:14:57;;;;;;;;;5.00;5.00;;;;;-147.17;100.00;32607.94;5080434;27;51607;-57
2023/05/30 03:17:22;;;;;;;;;5.00;5.00;;;;;-147.17;100.00;32237.59;5090035;27;52633;-57
2023/05/30 03:19:48;;;;;;;;;6.00;5.67;;;;;-147.17;100.00;32619.72;5089309;27;51279;-57
2023/05/30 03:22:13;;;;;;;;;5.00;5.00;;;;;-147.17;100.00;31935.84;5087013;27;51172;-58
2023/05/30 03:24:39;;;;;;;;;5.67;5.67;;;;;-147.17;100.00;31522.44;5078276;27;51002;-57
2023/05/30 03:27:05;;;;;;;;;5.00;5.00;;;;;-147.17;100.00;31201.13;5079543;27;51369;-57
2023/05/30 03:29:31;;;;;;;;;6.00;6.00;;;;;-147.17;100.00;32325.78;5087109;27;52584;-57
2023/05/30 03:31:56;;;;;;;;;7.00;7.00;;;;;-147.17;100.00;31383.34;5092975;27;50964;-57
2023/05/30 03:34:22;;;;;;;;;7.00;6.00;;;;;-147.17;100.00;31929.97;5093509;27;50910;-57
2023/05/30 03:36:52;;;;;;;;;6.33;4.67;;;;;-147.17;100.00;31732.06;5091575;27;51093;-56
2023/05/30 03:39:18;;;;;;;;;6.00;6.00;;;;;-147.17;100.00;30264.84;5090504;27;52878;-57
2023/05/30 03:41:43;;;;;;;;;5.00;4.67;;;;;-147.17;100.00;30564.53;5085292;27;50963;-56
2023/05/30 03:44:09;;;;;;;;;5.00;5.00;;;;;-147.17;100.00;30660.50;5091777;27;50951;-59
2023/05/30 03:46:34;;;;;;;;;4.67;4.67;;;;;-147.17;100.00;30633.06;5092344;27;50923;-58
2023/05/30 03:49:00;;;;;;;;;4.33;3.67;;;;;-147.17;100.00;31892.72;5091772;27;51906;-58
2023/05/30 03:51:26;;;;;;;;;7.00;6.00;;;;;-147.17;100.00;31912.31;5092965;27;51405;-58
2023/05/30 03:53:51;;;;;;;;;5.67;5.00;;;;;-147.17;100.00;31250.13;5091313;27;51100;-58
2023/05/30 03:56:16;;;;;;;;;2.67;2.67;;;;;-147.17;100.00;32296.38;5092746;27;51354;-59
2023/05/30 03:58:42;;;;;;;;;6.33;5.00;;;;;-147.17;100.00;31965.22;5090519;27;55523;-58
2023/05/30 04:01:07;;;;;;;;;5.33;5.00;;;;;-147.17;100.00;32043.59;5092444;27;51195;-58
2023/05/30 04:03:33;;;;;;;;;4.00;4.00;;;;;-147.17;100.00;31551.81;5085867;27;51781;-58
2023/05/30 04:05:58;;;;;;;;;4.67;4.00;;;;;-147.17;100.00;32462.94;5084397;27;51249;-58
2023/05/30 04:08:24;;;;;;;;;6.00;5.33;;;;;-147.17;100.00;32361.03;5076419;27;56825;-58
2023/05/30 04:10:50;;;;;;;;;5.67;5.33;;;;;-147.17;100.00;31832.00;5091436;27;51173;-58
2023/05/30 04:13:15;;;;;;;;;5.00;4.00;;;;;-147.17;100.00;31263.84;5087288;27;51157;-58
2023/05/30 04:15:41;;;;;;;;;6.33;5.33;;;;;-147.17;100.00;31250.13;5090953;27;51922;-58
2023/05/30 04:18:06;;;;;;;;;4.00;4.00;;;;;-147.17;100.00;31732.06;5089443;27;51405;-59
2023/05/30 04:20:31;;;;;;;;;4.33;4.33;;;;;-147.17;100.00;31892.72;5086153;27;51194;-58
2023/05/30 04:22:57;;;;;;;;;4.67;4.00;;;;;-147.17;100.00;31114.94;5087918;27;51197;-58
2023/05/30 04:25:23;;;;;;;;;5.33;5.33;;;;;-147.17;100.00;31669.38;5079095;27;51137;-59
2023/05/30 04:27:48;;;;;;;;;5.00;5.00;;;;;-147.17;100.00;31169.78;5072116;27;52503;-58
2023/05/30 04:30:13;;;;;;;;;5.67;5.67;;;;;-147.17;100.00;31908.41;5073516;27;51233;-58
2023/05/30 04:32:39;;;;;;;;;6.33;5.33;;;;;-147.17;100.00;31604.72;5092047;27;51291;-58
2023/05/30 04:35:07;;;;;;;;;5.67;4.67;;;;;-147.17;100.00;31126.69;5086064;27;51225;-59
2023/05/30 04:37:33;;;;;;;;;5.00;5.00;;;;;-147.17;100.00;30807.41;5079048;27;51860;-58
2023/05/30 04:39:59;;;;;;;;;4.67;4.67;;;;;-147.17;100.00;31038.53;5090257;27;51047;-59
2023/05/30 04:42:28;;;;;;;;;9.33;9.33;;;;;-147.17;100.00;31510.69;5077661;27;51264;-58
2023/05/30 04:44:54;;;;;;;;;6.33;5.33;;;;;-147.17;100.00;32016.16;5076000;27;51207;-58
2023/05/30 04:47:24;;;;;;;;;4.00;4.00;;;;;-147.17;100.00;31798.69;5077892;27;53022;-58
2023/05/30 04:50:00;;;;;;;;;6.33;6.00;;;;;-147.17;100.00;31365.69;5082479;27;50991;-58
2023/05/30 04:52:25;;;;;;;;;4.00;4.00;;;;;-147.17;100.00;31105.16;5091927;27;51168;-58
2023/05/30 04:54:52;;;;;;;;;6.67;5.00;;;;;-147.17;100.00;32188.59;5089841;27;51108;-58
2023/05/30 04:57:18;;;;;;;;;5.67;5.00;;;;;-147.17;100.00;31865.28;5090432;27;52865;-58
2023/05/30 04:59:43;;;;;;;;;5.33;5.33;;;;;-147.17;100.00;32529.56;5081198;27;51166;-58
2023/05/30 05:02:09;;;;;;;;;5.00;4.00;;;;;-147.17;100.00;32317.94;5082285;27;51263;-58
2023/05/30 05:04:34;;;;;;;;;4.67;4.67;;;;;-147.17;100.00;32625.59;5091254;27;51180;-58
2023/05/30 05:07:00;;;;;;;;;5.67;4.33;;;;;-147.17;100.00;33930.97;5089711;27;51735;-57
2023/05/30 05:09:26;;;;;;;;;7.33;5.00;;;;;-147.17;100.00;35028.94;5087543;27;51206;-58
2023/05/30 05:11:52;;;;;;;;;8.00;7.00;;;;;-147.17;100.00;37575.03;5090110;27;51303;-58
2023/05/30 05:14:17;;;;;;;;;7.67;6.00;;;;;-147.17;100.00;39551.44;5093814;27;51188;-56
2023/05/30 05:16:43;;;;;;;;;5.00;5.00;;;;;-147.17;100.00;39959.78;5084468;27;52961;-60
2023/05/30 05:19:08;;;;;;;;;4.00;4.00;;;;;-147.17;100.00;41271.56;5088267;27;51281;-56
2023/05/30 05:21:33;;;;;;;;;5.33;5.00;;;;;-147.17;100.00;42171.19;5088294;27;51349;-56
2023/05/30 05:23:59;;;;;;;;;6.67;5.67;;;;;-147.17;100.00;42780.22;5090178;27;51417;-56
2023/05/30 05:26:24;;;;;;;;;6.67;5.33;;;;;-147.17;100.00;43825.63;5091426;27;52682;-56
2023/05/30 05:28:50;;;;;;;;;6.67;5.33;;;;;-147.17;100.00;44193.16;5086472;27;51188;-56
2023/05/30 05:31:16;;;;;;;;;4.00;4.00;;;;;-147.17;100.00;44865.41;5092174;27;51135;-57
2023/05/30 05:33:42;;;;;;;;;5.67;5.67;;;;;-147.17;100.00;44914.53;5088132;27;51113;-57
2023/05/30 05:36:07;;;;;;;;;4.00;4.00;;;;;-147.17;100.00;45189.78;5088978;27;51207;-56
2023/05/30 05:38:33;;;;;;;;;5.00;4.67;;;;;-147.17;100.00;45988.03;5086506;27;52112;-57
2023/05/30 05:40:58;;;;;;;;;4.00;3.67;;;;;-147.17;100.00;46383.31;5088593;27;51193;-57
2023/05/30 05:43:23;;;;;;;;;5.00;5.00;;;;;-147.17;100.00;46188.63;5086398;27;51165;-56
2023/05/30 05:45:51;;;;;;;;;7.67;5.33;;;;;-147.17;100.00;46204.34;5086320;27;59148;-51
2023/05/30 05:48:16;;;;;;;;;5.00;4.00;;;;;-147.17;100.00;46436.41;5081700;27;51141;-51
2023/05/30 05:50:41;;;;;;;;;3.67;3.67;;;;;-147.17;100.00;46617.34;5078737;27;50956;-53
2023/05/30 05:53:07;;;;;;;;;6.00;5.00;;;;;-147.17;100.00;46758.94;5094914;27;51016;-52
2023/05/30 05:55:32;;;;;;;;;5.00;5.00;;;;;-147.17;100.00;46912.34;5089063;27;51893;-52
2023/05/30 05:57:57;;;;;;;;;6.67;5.00;;;;;-147.17;100.00;47111.00;5086394;27;51167;-53
2023/05/30 06:00:24;;;;;;;;;5.00;5.00;;;;;-147.17;100.00;47142.47;5073574;27;51170;-53
2023/05/30 06:02:49;;;;;;;;;7.00;6.67;;;;;-147.17;100.00;47305.75;5093456;27;51149;-53
2023/05/30 06:05:14;;;;;;;;;5.00;4.67;;;;;-147.17;100.00;47476.88;5094572;27;51869;-53
2023/05/30 06:07:39;;;;;;;;;6.67;6.00;;;;;-147.17;100.00;47506.38;5103055;27;51171;-52
2023/05/30 06:10:06;;;;;;;;;5.67;5.67;;;;;-147.17;100.00;47730.63;5093469;27;51146;-51
2023/05/30 06:12:31;;;;;;;;;5.67;4.00;;;;;-147.17;100.00;47718.84;5092914;27;51106;-52
2023/05/30 06:14:56;;;;;;;;;5.67;4.33;;;;;-147.17;100.00;47949.00;5088225;27;51819;-50
2023/05/30 06:17:22;;;;;;;;;5.67;4.67;;;;;-147.17;100.00;48057.22;5078263;27;50992;-53
2023/05/30 06:19:50;;;;;;;;;5.00;4.00;;;;;-147.17;100.00;48025.75;5094652;27;51096;-53
2023/05/30 06:22:15;;;;;;;;;5.00;4.67;;;;;-147.17;100.00;48088.69;5093030;27;51234;-52
2023/05/30 06:24:41;;;;;;;;;7.00;5.33;;;;;-147.17;100.00;48214.63;5094334;27;52170;-52
2023/05/30 06:27:06;;;;;;;;;5.33;5.33;;;;;-147.17;100.00;48167.41;5091767;27;51181;-49
2023/05/30 06:29:34;;;;;;;;;5.33;4.00;;;;;-147.17;100.00;48112.31;5093007;27;51429;-50
2023/05/30 06:32:00;;;;;;;;;7.00;6.00;;;;;-147.17;100.00;48013.94;5090296;27;51231;-48
2023/05/30 06:34:25;;;;;;;;;8.00;6.00;;;;;-147.17;100.00;48088.69;5094457;27;52297;-48
2023/05/30 06:36:50;;;;;;;;;4.33;4.33;;;;;-147.17;100.00;48122.16;5092826;27;51119;-50
2023/05/30 06:39:16;;;;;;;;;4.00;4.00;;;;;-147.17;100.00;48061.16;5093566;27;51119;-52
2023/05/30 06:41:45;;;;;;;;;5.67;5.00;;;;;-147.17;100.00;47888.03;5092415;27;51291;-51
2023/05/30 06:44:10;;;;;;;;;5.33;5.33;;;;;-147.17;100.00;47884.09;5092116;27;51826;-52
2023/05/30 06:46:36;;;;;;;;;9.00;8.33;;;;;-147.17;100.00;47797.53;5094239;27;51079;-53
2023/05/30 06:49:02;;;;;;;;;7.33;6.67;;;;;-147.17;100.00;47838.84;5086290;27;50978;-54
2023/05/30 06:51:28;;;;;;;;;5.00;4.33;;;;;-147.17;100.00;47880.16;5072896;28;51390;-49
2023/05/30 06:53:53;;;;;;;;;6.00;5.00;;;;;-147.17;100.00;47834.91;5079738;27;51932;-51
2023/05/30 06:56:19;;;;;;;;;4.00;4.00;;;;;-147.17;100.00;47888.03;5081160;27;51033;-51
2023/05/30 06:58:44;;;;;;;;;10.00;8.33;;;;;-147.17;100.00;47738.50;5073651;27;51097;-53
2023/05/30 07:01:10;;;;;;;;;9.00;7.00;;;;;-147.17;100.00;47673.59;5073593;28;51274;-53
2023/05/30 07:03:35;;;;;;;;;5.33;5.33;;;;;-147.17;100.00;47651.94;5085555;27;51063;-51
2023/05/30 07:06:01;;;;;;;;;5.00;5.00;;;;;-147.17;100.00;47616.53;5075378;27;51094;-50
2023/05/30 07:08:28;;;;;;;;;5.67;5.67;;;;;-147.17;100.00;47600.81;5088114;27;51092;-49
2023/05/30 07:10:53;;;;;;;;;4.00;4.00;;;;;-147.17;100.00;47482.78;5082128;27;51288;-51
2023/05/30 07:13:19;;;;;;;;;5.00;4.33;;;;;-147.17;100.00;47624.41;5085782;27;51087;-50
2023/05/30 07:15:44;;;;;;;;;6.00;6.00;;;;;-147.17;100.00;47659.81;5074351;27;51071;-49
2023/05/30 07:18:10;;;;;;;;;6.00;4.67;;;;;-147.17;100.00;47777.84;5073811;28;50919;-52
2023/05/30 07:20:35;;;;;;;;;6.67;5.33;;;;;-147.17;100.00;47707.03;5084462;27;51224;-51
2023/05/30 07:23:01;;;;;;;;;5.00;5.00;;;;;-147.17;100.00;47754.25;5075354;27;51986;-52
2023/05/30 07:25:26;;;;;;;;;7.00;7.00;;;;;-147.17;100.00;47766.06;5073589;27;51045;-53
2023/05/30 07:27:52;;;;;;;;;5.33;5.33;;;;;-147.17;100.00;47716.88;5073383;27;51541;-54
2023/05/30 07:30:17;;;;;;;;;6.00;5.00;;;;;-147.17;100.00;47762.13;5083637;27;51211;-51
2023/05/30 07:32:42;;;;;;;;;6.00;5.33;;;;;-147.17;100.00;47722.78;5093396;27;52145;-49
2023/05/30 07:35:08;;;;;;;;;4.00;4.00;;;;;-147.17;100.00;47592.94;5093850;27;51045;-52
2023/05/30 07:37:36;;;;;;;;;8.67;7.00;;;;;-147.17;100.00;47474.91;5093369;27;51120;-52
2023/05/30 07:40:07;;;;;;;;;5.33;4.33;;;;;-147.17;100.00;47451.31;5093473;27;51580;-52
2023/05/30 07:42:34;;;;;;;;;4.67;4.00;;;;;-147.17;100.00;47455.25;5093007;27;52176;-52
2023/05/30 07:45:00;;;;;;;;;6.00;5.00;;;;;-147.17;100.00;47415.91;5084167;27;50964;-52
2023/05/30 07:47:25;;;;;;;;;5.67;5.00;;;;;-147.17;100.00;47337.22;5072786;28;51166;-52
2023/05/30 07:49:50;;;;;;;;;3.67;3.00;;;;;-147.17;100.00;47313.59;5073120;27;51057;-51
2023/05/30 07:52:16;;;;;;;;;5.00;5.00;;;;;-147.17;100.00;47541.78;5073425;27;57440;-53
2023/05/30 07:54:42;;;;;;;;;5.33;5.33;;;;;-147.17;100.00;47801.47;5092028;27;51087;-52
2023/05/30 07:57:07;;;;;;;;;5.00;4.33;;;;;-147.17;100.00;47736.53;5076493;27;51182;-53
2023/05/30 07:59:33;;;;;;;;;6.00;4.67;;;;;-147.17;100.00;47626.38;5072917;27;51288;-53
2023/05/30 08:02:01;;;;;;;;;6.33;5.67;;;;;-147.17;100.00;47404.09;5080285;27;51167;-52
2023/05/30 08:04:26;;;;;;;;;6.00;4.33;;;;;-147.17;100.00;47250.66;5093142;27;51061;-53
2023/05/30 08:06:52;;;;;;;;;3.67;3.67;;;;;-147.17;100.00;47209.34;5092931;27;51424;-50
2023/05/30 08:09:17;;;;;;;;;5.00;5.00;;;;;-147.17;100.00;47189.69;5092451;27;51279;-50
2023/05/30 08:11:42;;;;;;;;;4.33;3.33;;;;;-147.17;100.00;47317.53;5084939;27;52184;-52
2023/05/30 08:14:08;;;;;;;;;6.00;5.00;;;;;-147.17;100.00;47152.31;5087713;27;54507;-51
2023/05/30 08:16:33;;;;;;;;;4.00;3.33;;;;;-147.17;100.00;46977.25;5087343;27;51778;-52
2023/05/30 08:18:59;;;;;;;;;5.33;4.67;;;;;-147.17;100.00;46703.88;5078516;27;51442;-52
2023/05/30 08:21:24;;;;;;;;;4.33;4.00;;;;;-147.17;100.00;46477.69;5083946;27;51823;-53
2023/05/30 08:23:50;;;;;;;;;4.00;3.00;;;;;-147.17;100.00;46460.00;5085769;27;51060;-53
2023/05/30 08:26:16;;;;;;;;;5.67;5.00;;;;;-147.17;100.00;46646.84;5086788;27;51391;-50
2023/05/30 08:28:42;;;;;;;;;7.00;5.33;;;;;-147.17;100.00;46534.72;5087319;27;51218;-52
2023/05/30 08:31:08;;;;;;;;;5.67;5.67;;;;;-147.17;100.00;46322.34;5089828;27;52915;-54
2023/05/30 08:33:34;;;;;;;;;3.67;3.67;;;;;-147.17;100.00;46316.44;5080662;27;51011;-52
2023/05/30 08:36:00;;;;;;;;;3.00;3.00;;;;;-147.17;100.00;46452.13;5092130;27;51020;-53
2023/05/30 08:38:25;;;;;;;;;6.33;6.00;;;;;-147.17;100.00;46526.88;5091267;27;51044;-53
2023/05/30 08:40:52;;;;;;;;;5.33;4.33;;;;;-147.17;100.00;46385.28;5092073;27;51255;-52
2023/05/30 08:43:18;;;;;;;;;5.33;4.67;;;;;-147.17;100.00;46369.53;5085434;27;51249;-51
2023/05/30 08:45:43;;;;;;;;;4.33;3.67;;;;;-147.17;100.00;46629.13;5092664;27;51169;-53
2023/05/30 08:48:15;;;;;;;;;4.00;3.00;;;;;-147.17;100.00;46902.50;5091178;27;51028;-51
2023/05/30 08:50:42;;;;;;;;;5.67;5.33;;;;;-147.17;100.00;46755.00;5092560;27;53163;-51
2023/05/30 08:53:11;;;;;;;;;6.33;6.00;;;;;-147.17;100.00;46436.41;5092129;27;51006;-50
2023/05/30 08:56:10;;;;;;;;;5.00;4.33;;;;;-147.17;100.00;46308.56;5091895;27;51162;-50
2023/05/30 08:58:47;;;;;;;;;5.00;4.67;;;;;-147.17;100.00;46174.84;5095067;27;52414;-50
2023/05/30 09:01:12;;;;;;;;;4.00;3.00;;;;;-147.17;100.00;45913.31;5074775;27;51056;-52
2023/05/30 09:03:45;;;;;;;;;6.67;6.00;;;;;-147.17;100.00;45779.63;5100191;27;51218;-53
2023/05/30 09:06:13;;;;;;;;;6.00;6.00;;;;;-147.17;100.00;45630.19;5089497;27;51011;-52
2023/05/30 09:08:41;;;;;;;;;5.67;4.00;;;;;-147.17;100.00;45380.47;5084656;27;51166;-54
2023/05/30 09:11:07;;;;;;;;;4.00;4.00;;;;;-147.17;100.00;45044.28;5097413;27;51081;-52
2023/05/30 09:13:34;;;;;;;;;3.00;3.00;;;;;-147.17;100.00;44765.16;5089456;27;51107;-54
2023/05/30 09:16:00;;;;;;;;;4.67;4.67;;;;;-147.17;100.00;45136.69;5092638;27;51138;-55
2023/05/30 09:18:29;;;;;;;;;6.00;5.00;;;;;-147.17;100.00;45176.00;5089683;27;51270;-52
2023/05/30 09:20:55;;;;;;;;;4.00;4.00;;;;;-147.17;100.00;45095.41;5086860;27;51869;-52
2023/05/30 09:23:21;;;;;;;;;5.33;4.67;;;;;-147.17;100.00;44942.06;5073680;27;51126;-49
2023/05/30 09:25:48;;;;;;;;;3.67;3.67;;;;;-147.17;100.00;44708.13;5089021;27;51264;-52
2023/05/30 09:28:14;;;;;;;;;5.00;5.00;;;;;-147.17;100.00;44645.22;5093747;27;51102;-53
2023/05/30 09:31:01;;;;;;;;;3.00;3.00;;;;;-147.17;100.00;44751.38;5085776;27;52100;-50
2023/05/30 09:33:50;;;;;;;;;3.67;3.67;;;;;-147.17;100.00;44993.19;5094636;27;51023;-51
2023/05/30 09:36:20;;;;;;;;;6.00;6.00;;;;;-147.17;100.00;45488.63;5084506;27;51139;-52
2023/05/30 09:38:55;;;;;;;;;4.33;4.00;;;;;-147.17;100.00;45799.28;5086594;27;51134;-52
2023/05/30 09:41:21;;;;;;;;;6.33;5.00;;;;;-147.17;100.00;45962.47;5094472;27;51179;-52
2023/05/30 09:43:52;;;;;;;;;4.67;4.00;;;;;-147.17;100.00;45681.31;5080362;27;51087;-57
2023/05/30 09:46:17;;;;;;;;;4.00;4.00;;;;;-147.17;100.00;45404.06;5099970;27;51129;-53
2023/05/30 09:48:42;;;;;;;;;6.00;4.00;;;;;-147.17;100.00;45111.13;5083260;27;51102;-52
2023/05/30 09:51:10;;;;;;;;;5.00;5.00;;;;;-147.17;100.00;45091.47;5105801;27;52027;-53
2023/05/30 09:53:36;;;;;;;;;4.00;4.00;;;;;-147.17;100.00;44946.00;5085908;27;51224;-51
2023/05/30 09:56:02;;;;;;;;;5.00;5.00;;;;;-147.17;100.00;44835.91;5091301;27;50895;-53
2023/05/30 09:58:28;;;;;;;;;5.33;5.00;;;;;-147.17;100.00;44784.81;5103124;27;51371;-53
2023/05/30 10:00:57;;;;;;;;;5.00;5.00;;;;;-147.17;100.00;44529.25;5101188;27;51042;-53
2023/05/30 10:03:43;;;;;;;;;4.33;4.00;;;;;-147.17;100.00;44279.63;5083701;27;51117;-53
2023/05/30 10:06:15;;;;;;;;;4.00;3.00;;;;;-147.17;100.00;44232.47;5093016;27;51020;-52
2023/05/30 10:08:45;;;;;;;;;5.33;4.67;;;;;-147.17;100.00;44222.63;5087755;27;51154;-52
2023/05/30 10:11:12;;;;;;;;;6.00;5.33;;;;;-147.17;100.00;44423.13;5082540;27;51242;-51
2023/05/30 10:13:38;;;;;;;;;3.67;3.00;;;;;-147.17;100.00;44698.31;5095017;27;51074;-50
2023/05/30 10:16:11;;;;;;;;;5.00;4.00;;;;;-147.17;100.00;45079.69;5081479;27;51054;-51
2023/05/30 10:18:42;;;;;;;;;4.00;4.00;;;;;-147.17;100.00;45579.06;5081304;27;50890;-51
2023/05/30 10:21:11;;;;;;;;;5.33;4.33;;;;;-147.17;100.00;46298.75;5103338;27;52019;-51
2023/05/30 10:23:39;;;;;;;;;4.00;2.67;;;;;-147.17;100.00;46745.16;5098147;27;50973;-52
2023/05/30 10:26:08;;;;;;;;;5.00;5.00;;;;;-147.17;100.00;47205.41;5082135;27;51121;-54
2023/05/30 10:28:34;;;;;;;;;6.33;5.00;;;;;-147.17;100.00;47388.34;5106214;27;51310;-51
2023/05/30 10:31:03;;;;;;;;;5.67;4.67;;;;;-147.17;100.00;47634.25;5100051;27;51149;-52
2023/05/30 10:33:35;;;;;;;;;6.00;4.67;;;;;-147.17;100.00;47821.13;5080799;27;51066;-53
2023/05/30 10:36:01;;;;;;;;;5.33;4.33;;;;;-147.17;100.00;47982.47;5077393;27;50975;-51
2023/05/30 10:38:29;;;;;;;;;3.00;3.00;;;;;-147.17;100.00;48204.78;5092845;27;51311;-50
2023/05/30 10:41:00;;;;;;;;;4.33;4.00;;;;;-147.17;100.00;48407.44;5079285;27;51954;-53
2023/05/30 10:43:56;;;;;;;;;6.33;6.33;;;;;-147.17;100.00;48529.44;5091085;27;51293;-51
2023/05/30 10:46:40;;;;;;;;;4.00;4.00;;;;;-147.17;100.00;48667.16;5091578;27;51042;-52
2023/05/30 10:49:10;;;;;;;;;3.00;3.00;;;;;-147.17;100.00;48649.44;5081935;27;51209;-50
2023/05/30 10:52:01;;;;;;;;;39.00;33.50;;;;;-147.17;100.00;48710.44;5073175;27;51834;-49
2023/05/30 10:54:32;;;;;;;;;11.33;11.33;;;;;-147.17;100.00;48732.09;5098763;27;51086;-53
2023/05/30 10:56:59;;;;;;;;;9.33;9.00;;;;;-147.17;100.00;48828.53;5099112;27;51232;-52
2023/05/30 10:59:24;;;;;;;;;30.75;29.25;;;;;-147.17;100.00;48828.53;5104273;27;51006;-49
2023/05/30 11:02:04;;;;;;;;;21.00;20.25;;;;;-147.17;100.00;48816.72;5084595;27;51872;-52
2023/05/30 11:04:36;;;;;;;;;10.67;10.67;;;;;-147.17;100.00;48769.50;5098538;27;51034;-49
2023/05/30 11:07:07;;;;;;;;;55.25;44.50;;;;;-147.17;100.00;48828.53;5090568;27;51080;-50
2023/05/30 11:09:33;;;;;;;;;44.75;36.25;;;;;-147.17;100.00;48854.09;5079088;27;51387;-51
2023/05/30 11:12:00;;;;;;;;;21.25;20.00;;;;;-147.17;100.00;48871.81;5095358;27;51081;-51